Conceicao de Ipanema, Brazil
Current Conditions -  °F | °C
As of 8:50 PM on Friday 24 Oct 2014 (Local Time) from SBIP Reporting Station
Clear Clear  
Wind Chill: 77°   Ceiling: Unl
Heat Index: 79°   Visibility: 6mi
Dew Point: 66°   Wind: 0mph
Humidity: 69%   Direction: NA
Pressure: 29.88"   Gusts: NA
Location:  19.93°S, 41.69°W
Report Text: SBIP 242250Z 00000KT CAVOK 25/19 Q1012
Loading
Personal Weather Stations






























Interactive Weather Map
Tropical Storm Tracking
New forecast layout! Learn more

10-Day Weather Forecast

Advertisements
Track Severe Weather on mobile